sensor_id;sensor_type;location;lat;lon;timestamp;P1;durP1;ratioP1;P2;durP2;ratioP2
62179;SDS011;48172;53.374;10.722;2022-12-07T00:01:24;1.60;;;1.50;;
62179;SDS011;48172;53.374;10.722;2022-12-07T00:03:54;1.73;;;1.50;;
62179;SDS011;48172;53.374;10.722;2022-12-07T00:06:40;1.67;;;1.50;;
62179;SDS011;48172;53.374;10.722;2022-12-07T00:09:12;1.95;;;1.75;;
62179;SDS011;48172;53.374;10.722;2022-12-07T00:11:40;1.73;;;1.40;;
62179;SDS011;48172;53.374;10.722;2022-12-07T00:14:07;2.00;;;1.70;;
62179;SDS011;48172;53.374;10.722;2022-12-07T00:16:36;1.77;;;1.48;;
62179;SDS011;48172;53.374;10.722;2022-12-07T00:19:03;2.00;;;1.80;;
62179;SDS011;48172;53.374;10.722;2022-12-07T00:21:34;1.73;;;1.60;;
62179;SDS011;48172;53.374;10.722;2022-12-07T00:24:02;1.70;;;1.48;;
62179;SDS011;48172;53.374;10.722;2022-12-07T00:26:30;1.48;;;1.38;;
62179;SDS011;48172;53.374;10.722;2022-12-07T00:29:11;1.52;;;1.35;;
62179;SDS011;48172;53.374;10.722;2022-12-07T00:31:43;2.75;;;2.30;;
62179;SDS011;48172;53.374;10.722;2022-12-07T00:34:14;1.55;;;1.38;;
62179;SDS011;48172;53.374;10.722;2022-12-07T00:36:42;2.25;;;1.60;;
62179;SDS011;48172;53.374;10.722;2022-12-07T00:39:09;1.80;;;1.48;;
62179;SDS011;48172;53.374;10.722;2022-12-07T00:41:35;2.25;;;1.60;;
62179;SDS011;48172;53.374;10.722;2022-12-07T00:44:02;1.90;;;1.70;;
62179;SDS011;48172;53.374;10.722;2022-12-07T00:46:29;1.67;;;1.58;;
62179;SDS011;48172;53.374;10.722;2022-12-07T00:48:55;1.65;;;1.50;;
62179;SDS011;48172;53.374;10.722;2022-12-07T00:51:22;2.15;;;1.55;;
62179;SDS011;48172;53.374;10.722;2022-12-07T00:53:50;1.88;;;1.50;;
62179;SDS011;48172;53.374;10.722;2022-12-07T00:56:18;1.63;;;1.52;;
62179;SDS011;48172;53.374;10.722;2022-12-07T00:58:50;1.47;;;1.37;;
62179;SDS011;48172;53.374;10.722;2022-12-07T01:01:18;2.10;;;1.77;;
62179;SDS011;48172;53.374;10.722;2022-12-07T01:03:44;1.92;;;1.73;;
62179;SDS011;48172;53.374;10.722;2022-12-07T01:06:13;1.70;;;1.60;;
62179;SDS011;48172;53.374;10.722;2022-12-07T01:08:42;1.33;;;1.23;;
62179;SDS011;48172;53.374;10.722;2022-12-07T01:11:09;1.42;;;1.33;;
62179;SDS011;48172;53.374;10.722;2022-12-07T01:13:39;1.60;;;1.48;;
62179;SDS011;48172;53.374;10.722;2022-12-07T01:16:07;1.40;;;1.30;;
62179;SDS011;48172;53.374;10.722;2022-12-07T01:18:35;1.50;;;1.40;;
62179;SDS011;48172;53.374;10.722;2022-12-07T01:23:32;1.58;;;1.48;;
62179;SDS011;48172;53.374;10.722;2022-12-07T01:26:00;1.60;;;1.48;;
62179;SDS011;48172;53.374;10.722;2022-12-07T01:28:29;1.55;;;1.42;;
62179;SDS011;48172;53.374;10.722;2022-12-07T01:30:57;1.60;;;1.35;;
62179;SDS011;48172;53.374;10.722;2022-12-07T01:33:23;1.42;;;1.33;;
62179;SDS011;48172;53.374;10.722;2022-12-07T01:35:50;1.73;;;1.60;;
62179;SDS011;48172;53.374;10.722;2022-12-07T01:38:16;1.58;;;1.42;;
62179;SDS011;48172;53.374;10.722;2022-12-07T01:40:43;1.40;;;1.30;;
62179;SDS011;48172;53.374;10.722;2022-12-07T01:43:14;1.52;;;1.30;;
62179;SDS011;48172;53.374;10.722;2022-12-07T01:45:44;1.75;;;1.30;;
62179;SDS011;48172;53.374;10.722;2022-12-07T01:48:11;1.80;;;1.50;;
62179;SDS011;48172;53.374;10.722;2022-12-07T01:50:41;1.42;;;1.30;;
62179;SDS011;48172;53.374;10.722;2022-12-07T01:53:09;1.55;;;1.35;;
62179;SDS011;48172;53.374;10.722;2022-12-07T01:55:37;2.55;;;1.33;;
62179;SDS011;48172;53.374;10.722;2022-12-07T01:58:07;1.45;;;1.35;;
62179;SDS011;48172;53.374;10.722;2022-12-07T02:00:35;1.70;;;1.30;;
62179;SDS011;48172;53.374;10.722;2022-12-07T02:03:09;1.80;;;1.27;;
62179;SDS011;48172;53.374;10.722;2022-12-07T02:05:41;1.17;;;1.08;;
62179;SDS011;48172;53.374;10.722;2022-12-07T02:08:09;1.40;;;1.30;;
62179;SDS011;48172;53.374;10.722;2022-12-07T02:10:38;1.50;;;1.30;;
62179;SDS011;48172;53.374;10.722;2022-12-07T02:13:12;1.23;;;1.13;;
62179;SDS011;48172;53.374;10.722;2022-12-07T02:21:47;1.80;;;1.70;;
62179;SDS011;48172;53.374;10.722;2022-12-07T02:30:00;1.40;;;1.30;;
62179;SDS011;48172;53.374;10.722;2022-12-07T02:35:06;1.50;;;1.40;;
62179;SDS011;48172;53.374;10.722;2022-12-07T02:40:24;1.58;;;1.27;;
62179;SDS011;48172;53.374;10.722;2022-12-07T02:43:08;1.40;;;1.30;;
62179;SDS011;48172;53.374;10.722;2022-12-07T02:45:40;1.73;;;1.40;;
62179;SDS011;48172;53.374;10.722;2022-12-07T02:48:08;1.40;;;1.30;;
62179;SDS011;48172;53.374;10.722;2022-12-07T02:50:38;1.42;;;1.27;;
62179;SDS011;48172;53.374;10.722;2022-12-07T02:53:04;1.23;;;1.13;;
62179;SDS011;48172;53.374;10.722;2022-12-07T02:55:36;1.42;;;1.33;;
62179;SDS011;48172;53.374;10.722;2022-12-07T02:58:19;1.67;;;1.40;;
62179;SDS011;48172;53.374;10.722;2022-12-07T03:01:31;1.88;;;1.42;;
62179;SDS011;48172;53.374;10.722;2022-12-07T03:04:16;1.55;;;1.30;;
62179;SDS011;48172;53.374;10.722;2022-12-07T03:07:01;1.30;;;1.20;;
62179;SDS011;48172;53.374;10.722;2022-12-07T03:12:37;1.48;;;1.33;;
62179;SDS011;48172;53.374;10.722;2022-12-07T03:15:07;2.05;;;1.23;;
62179;SDS011;48172;53.374;10.722;2022-12-07T03:17:52;1.40;;;1.30;;
62179;SDS011;48172;53.374;10.722;2022-12-07T03:20:22;1.20;;;1.10;;
62179;SDS011;48172;53.374;10.722;2022-12-07T03:22:50;1.50;;;1.30;;
62179;SDS011;48172;53.374;10.722;2022-12-07T03:25:18;1.50;;;1.20;;
62179;SDS011;48172;53.374;10.722;2022-12-07T03:27:58;1.23;;;1.10;;
62179;SDS011;48172;53.374;10.722;2022-12-07T03:30:36;1.20;;;1.10;;
62179;SDS011;48172;53.374;10.722;2022-12-07T03:35:37;1.33;;;1.23;;
62179;SDS011;48172;53.374;10.722;2022-12-07T03:40:56;1.48;;;1.38;;
62179;SDS011;48172;53.374;10.722;2022-12-07T03:43:28;1.58;;;1.30;;
62179;SDS011;48172;53.374;10.722;2022-12-07T03:48:41;1.40;;;1.27;;
62179;SDS011;48172;53.374;10.722;2022-12-07T03:51:28;1.40;;;1.23;;
62179;SDS011;48172;53.374;10.722;2022-12-07T03:54:11;1.38;;;1.10;;
62179;SDS011;48172;53.374;10.722;2022-12-07T03:56:43;1.00;;;0.95;;
62179;SDS011;48172;53.374;10.722;2022-12-07T03:59:11;1.30;;;1.20;;
62179;SDS011;48172;53.374;10.722;2022-12-07T04:01:43;1.23;;;1.13;;
62179;SDS011;48172;53.374;10.722;2022-12-07T04:04:10;1.48;;;1.25;;
62179;SDS011;48172;53.374;10.722;2022-12-07T04:06:37;1.30;;;1.10;;
62179;SDS011;48172;53.374;10.722;2022-12-07T04:09:04;1.27;;;1.13;;
62179;SDS011;48172;53.374;10.722;2022-12-07T04:11:30;1.00;;;1.00;;
62179;SDS011;48172;53.374;10.722;2022-12-07T04:13:56;1.33;;;1.23;;
62179;SDS011;48172;53.374;10.722;2022-12-07T04:16:41;1.20;;;1.10;;
62179;SDS011;48172;53.374;10.722;2022-12-07T04:19:10;1.60;;;1.20;;
62179;SDS011;48172;53.374;10.722;2022-12-07T04:21:36;1.27;;;1.10;;
62179;SDS011;48172;53.374;10.722;2022-12-07T04:24:03;1.60;;;1.20;;
62179;SDS011;48172;53.374;10.722;2022-12-07T04:26:31;1.40;;;1.00;;
62179;SDS011;48172;53.374;10.722;2022-12-07T04:28:57;1.08;;;1.08;;
62179;SDS011;48172;53.374;10.722;2022-12-07T04:31:30;1.50;;;1.20;;
62179;SDS011;48172;53.374;10.722;2022-12-07T04:33:56;1.10;;;1.00;;
62179;SDS011;48172;53.374;10.722;2022-12-07T04:36:23;1.27;;;1.00;;
62179;SDS011;48172;53.374;10.722;2022-12-07T04:38:49;1.25;;;1.15;;
62179;SDS011;48172;53.374;10.722;2022-12-07T04:41:18;1.20;;;1.00;;
62179;SDS011;48172;53.374;10.722;2022-12-07T04:43:45;1.20;;;1.10;;
62179;SDS011;48172;53.374;10.722;2022-12-07T04:46:12;1.20;;;1.10;;
62179;SDS011;48172;53.374;10.722;2022-12-07T04:48:39;1.05;;;0.93;;
62179;SDS011;48172;53.374;10.722;2022-12-07T04:51:05;1.38;;;1.10;;
62179;SDS011;48172;53.374;10.722;2022-12-07T04:53:32;1.50;;;1.10;;
62179;SDS011;48172;53.374;10.722;2022-12-07T04:55:58;1.00;;;0.90;;
62179;SDS011;48172;53.374;10.722;2022-12-07T04:58:25;1.55;;;1.00;;
62179;SDS011;48172;53.374;10.722;2022-12-07T05:00:53;1.23;;;1.02;;
62179;SDS011;48172;53.374;10.722;2022-12-07T05:03:21;1.13;;;1.02;;
62179;SDS011;48172;53.374;10.722;2022-12-07T05:05:48;2.35;;;0.90;;
62179;SDS011;48172;53.374;10.722;2022-12-07T05:08:14;1.00;;;0.90;;
62179;SDS011;48172;53.374;10.722;2022-12-07T05:10:41;1.00;;;0.90;;
62179;SDS011;48172;53.374;10.722;2022-12-07T05:13:07;1.25;;;1.00;;
62179;SDS011;48172;53.374;10.722;2022-12-07T05:15:34;1.08;;;0.98;;
62179;SDS011;48172;53.374;10.722;2022-12-07T05:18:00;1.50;;;1.08;;
62179;SDS011;48172;53.374;10.722;2022-12-07T05:20:27;1.45;;;0.90;;
62179;SDS011;48172;53.374;10.722;2022-12-07T05:22:53;1.30;;;1.05;;
62179;SDS011;48172;53.374;10.722;2022-12-07T05:25:20;1.10;;;0.90;;
62179;SDS011;48172;53.374;10.722;2022-12-07T05:27:46;1.10;;;0.90;;
62179;SDS011;48172;53.374;10.722;2022-12-07T05:30:13;1.10;;;1.00;;
62179;SDS011;48172;53.374;10.722;2022-12-07T05:32:40;1.13;;;0.70;;
62179;SDS011;48172;53.374;10.722;2022-12-07T05:35:06;1.20;;;1.10;;
62179;SDS011;48172;53.374;10.722;2022-12-07T05:37:33;0.93;;;0.88;;
62179;SDS011;48172;53.374;10.722;2022-12-07T05:40:00;0.88;;;0.88;;
62179;SDS011;48172;53.374;10.722;2022-12-07T05:42:27;0.80;;;0.80;;
62179;SDS011;48172;53.374;10.722;2022-12-07T05:44:53;1.08;;;0.98;;
62179;SDS011;48172;53.374;10.722;2022-12-07T05:47:20;1.10;;;1.00;;
62179;SDS011;48172;53.374;10.722;2022-12-07T05:49:47;1.10;;;1.00;;
62179;SDS011;48172;53.374;10.722;2022-12-07T05:52:13;1.60;;;0.95;;
62179;SDS011;48172;53.374;10.722;2022-12-07T05:54:40;0.88;;;0.88;;
62179;SDS011;48172;53.374;10.722;2022-12-07T05:57:06;1.20;;;1.10;;
62179;SDS011;48172;53.374;10.722;2022-12-07T05:59:33;0.80;;;0.80;;
62179;SDS011;48172;53.374;10.722;2022-12-07T06:02:10;0.80;;;0.80;;
62179;SDS011;48172;53.374;10.722;2022-12-07T06:04:40;0.60;;;0.60;;
62179;SDS011;48172;53.374;10.722;2022-12-07T06:07:08;1.60;;;0.90;;
62179;SDS011;48172;53.374;10.722;2022-12-07T06:09:35;1.23;;;0.80;;
62179;SDS011;48172;53.374;10.722;2022-12-07T06:12:02;0.70;;;0.70;;
62179;SDS011;48172;53.374;10.722;2022-12-07T06:14:48;0.80;;;0.80;;
62179;SDS011;48172;53.374;10.722;2022-12-07T06:17:15;0.60;;;0.60;;
62179;SDS011;48172;53.374;10.722;2022-12-07T06:19:42;0.70;;;0.70;;
62179;SDS011;48172;53.374;10.722;2022-12-07T06:22:09;0.90;;;0.80;;
62179;SDS011;48172;53.374;10.722;2022-12-07T06:24:37;0.88;;;0.75;;
62179;SDS011;48172;53.374;10.722;2022-12-07T06:27:04;0.73;;;0.57;;
62179;SDS011;48172;53.374;10.722;2022-12-07T06:29:32;0.93;;;0.82;;
62179;SDS011;48172;53.374;10.722;2022-12-07T06:31:58;0.70;;;0.70;;
62179;SDS011;48172;53.374;10.722;2022-12-07T06:34:25;0.82;;;0.73;;
62179;SDS011;48172;53.374;10.722;2022-12-07T06:36:52;0.80;;;0.70;;
62179;SDS011;48172;53.374;10.722;2022-12-07T06:39:22;0.60;;;0.60;;
62179;SDS011;48172;53.374;10.722;2022-12-07T06:41:50;1.00;;;0.80;;
62179;SDS011;48172;53.374;10.722;2022-12-07T06:44:20;0.82;;;0.82;;
62179;SDS011;48172;53.374;10.722;2022-12-07T06:46:48;0.75;;;0.75;;
62179;SDS011;48172;53.374;10.722;2022-12-07T06:49:15;0.80;;;0.80;;
62179;SDS011;48172;53.374;10.722;2022-12-07T06:51:42;1.13;;;0.63;;
62179;SDS011;48172;53.374;10.722;2022-12-07T06:54:09;2.35;;;0.75;;
62179;SDS011;48172;53.374;10.722;2022-12-07T06:56:38;1.10;;;0.70;;
62179;SDS011;48172;53.374;10.722;2022-12-07T06:59:05;1.10;;;0.60;;
62179;SDS011;48172;53.374;10.722;2022-12-07T07:01:33;0.93;;;0.70;;
62179;SDS011;48172;53.374;10.722;2022-12-07T07:04:00;1.17;;;0.80;;
62179;SDS011;48172;53.374;10.722;2022-12-07T07:06:27;0.82;;;0.68;;
62179;SDS011;48172;53.374;10.722;2022-12-07T07:08:54;1.13;;;0.70;;
62179;SDS011;48172;53.374;10.722;2022-12-07T07:11:20;1.10;;;0.70;;
62179;SDS011;48172;53.374;10.722;2022-12-07T07:13:47;1.02;;;0.70;;
62179;SDS011;48172;53.374;10.722;2022-12-07T07:16:13;1.48;;;0.80;;
62179;SDS011;48172;53.374;10.722;2022-12-07T07:18:40;1.17;;;0.70;;
62179;SDS011;48172;53.374;10.722;2022-12-07T07:21:06;2.10;;;0.80;;
62179;SDS011;48172;53.374;10.722;2022-12-07T07:23:33;1.17;;;1.08;;
62179;SDS011;48172;53.374;10.722;2022-12-07T07:25:59;1.23;;;0.90;;
62179;SDS011;48172;53.374;10.722;2022-12-07T07:28:26;2.50;;;0.82;;
62179;SDS011;48172;53.374;10.722;2022-12-07T07:30:52;0.80;;;0.80;;
62179;SDS011;48172;53.374;10.722;2022-12-07T07:33:19;1.20;;;1.10;;
62179;SDS011;48172;53.374;10.722;2022-12-07T07:35:46;2.08;;;1.13;;
62179;SDS011;48172;53.374;10.722;2022-12-07T07:38:12;4.78;;;1.50;;
62179;SDS011;48172;53.374;10.722;2022-12-07T07:40:38;2.78;;;1.40;;
62179;SDS011;48172;53.374;10.722;2022-12-07T07:43:05;4.10;;;1.30;;
62179;SDS011;48172;53.374;10.722;2022-12-07T07:45:31;5.60;;;1.80;;
62179;SDS011;48172;53.374;10.722;2022-12-07T07:47:58;6.93;;;2.40;;
62179;SDS011;48172;53.374;10.722;2022-12-07T07:50:24;3.58;;;2.00;;
62179;SDS011;48172;53.374;10.722;2022-12-07T07:52:51;5.35;;;2.60;;
62179;SDS011;48172;53.374;10.722;2022-12-07T07:55:18;6.30;;;2.53;;
62179;SDS011;48172;53.374;10.722;2022-12-07T07:57:55;5.53;;;3.35;;
62179;SDS011;48172;53.374;10.722;2022-12-07T08:00:21;7.72;;;2.40;;
62179;SDS011;48172;53.374;10.722;2022-12-07T08:02:48;4.80;;;3.03;;
62179;SDS011;48172;53.374;10.722;2022-12-07T08:05:15;6.40;;;3.30;;
62179;SDS011;48172;53.374;10.722;2022-12-07T08:07:45;8.35;;;3.58;;
62179;SDS011;48172;53.374;10.722;2022-12-07T08:10:12;10.90;;;4.43;;
62179;SDS011;48172;53.374;10.722;2022-12-07T08:12:40;8.90;;;4.07;;
62179;SDS011;48172;53.374;10.722;2022-12-07T08:15:28;8.30;;;4.70;;
62179;SDS011;48172;53.374;10.722;2022-12-07T08:17:56;11.73;;;5.00;;
62179;SDS011;48172;53.374;10.722;2022-12-07T08:20:23;10.27;;;5.70;;
62179;SDS011;48172;53.374;10.722;2022-12-07T08:22:50;10.35;;;5.68;;
62179;SDS011;48172;53.374;10.722;2022-12-07T08:25:17;10.63;;;5.20;;
62179;SDS011;48172;53.374;10.722;2022-12-07T08:27:44;7.78;;;5.28;;
62179;SDS011;48172;53.374;10.722;2022-12-07T08:30:10;44.38;;;39.47;;
62179;SDS011;48172;53.374;10.722;2022-12-07T08:32:37;51.22;;;44.50;;
62179;SDS011;48172;53.374;10.722;2022-12-07T08:35:03;91.55;;;77.10;;
62179;SDS011;48172;53.374;10.722;2022-12-07T08:37:31;89.47;;;79.55;;
62179;SDS011;48172;53.374;10.722;2022-12-07T08:39:57;143.02;;;116.05;;
62179;SDS011;48172;53.374;10.722;2022-12-07T08:42:24;212.73;;;167.23;;
62179;SDS011;48172;53.374;10.722;2022-12-07T08:44:56;172.55;;;137.63;;
62179;SDS011;48172;53.374;10.722;2022-12-07T08:47:23;220.02;;;175.45;;
62179;SDS011;48172;53.374;10.722;2022-12-07T08:49:51;177.35;;;145.15;;
62179;SDS011;48172;53.374;10.722;2022-12-07T08:52:19;233.70;;;193.25;;
62179;SDS011;48172;53.374;10.722;2022-12-07T08:54:46;377.10;;;301.60;;
62179;SDS011;48172;53.374;10.722;2022-12-07T08:57:13;240.57;;;193.57;;
62179;SDS011;48172;53.374;10.722;2022-12-07T08:59:39;265.15;;;215.25;;
62179;SDS011;48172;53.374;10.722;2022-12-07T09:02:06;323.42;;;259.10;;
62179;SDS011;48172;53.374;10.722;2022-12-07T09:04:32;265.50;;;217.57;;
62179;SDS011;48172;53.374;10.722;2022-12-07T09:06:59;312.30;;;257.27;;
62179;SDS011;48172;53.374;10.722;2022-12-07T09:09:26;326.67;;;264.42;;
62179;SDS011;48172;53.374;10.722;2022-12-07T09:11:52;316.20;;;254.90;;
62179;SDS011;48172;53.374;10.722;2022-12-07T09:14:19;347.20;;;281.67;;
62179;SDS011;48172;53.374;10.722;2022-12-07T09:16:45;404.42;;;329.52;;
62179;SDS011;48172;53.374;10.722;2022-12-07T09:19:12;343.52;;;287.58;;
62179;SDS011;48172;53.374;10.722;2022-12-07T09:21:39;409.77;;;327.42;;
62179;SDS011;48172;53.374;10.722;2022-12-07T09:24:05;375.73;;;310.42;;
62179;SDS011;48172;53.374;10.722;2022-12-07T09:26:33;419.05;;;334.75;;
62179;SDS011;48172;53.374;10.722;2022-12-07T09:29:04;407.85;;;324.45;;
62179;SDS011;48172;53.374;10.722;2022-12-07T09:31:30;412.02;;;330.65;;
62179;SDS011;48172;53.374;10.722;2022-12-07T09:33:58;452.65;;;361.42;;
62179;SDS011;48172;53.374;10.722;2022-12-07T09:36:26;490.92;;;400.65;;
62179;SDS011;48172;53.374;10.722;2022-12-07T09:38:53;436.83;;;347.67;;
62179;SDS011;48172;53.374;10.722;2022-12-07T09:41:20;455.40;;;364.02;;
62179;SDS011;48172;53.374;10.722;2022-12-07T09:43:48;431.55;;;343.70;;
62179;SDS011;48172;53.374;10.722;2022-12-07T09:46:16;459.70;;;364.60;;
62179;SDS011;48172;53.374;10.722;2022-12-07T09:48:45;433.10;;;350.55;;
62179;SDS011;48172;53.374;10.722;2022-12-07T09:51:21;406.75;;;329.33;;
62179;SDS011;48172;53.374;10.722;2022-12-07T09:53:52;470.38;;;369.25;;
62179;SDS011;48172;53.374;10.722;2022-12-07T09:56:20;445.20;;;353.38;;
62179;SDS011;48172;53.374;10.722;2022-12-07T09:58:47;424.02;;;344.08;;
62179;SDS011;48172;53.374;10.722;2022-12-07T10:03:55;390.30;;;319.08;;
62179;SDS011;48172;53.374;10.722;2022-12-07T10:06:28;388.02;;;312.85;;
62179;SDS011;48172;53.374;10.722;2022-12-07T10:08:54;376.55;;;307.83;;
62179;SDS011;48172;53.374;10.722;2022-12-07T10:11:21;371.55;;;305.45;;
62179;SDS011;48172;53.374;10.722;2022-12-07T10:13:49;363.85;;;297.60;;
62179;SDS011;48172;53.374;10.722;2022-12-07T10:19:19;387.23;;;312.00;;
62179;SDS011;48172;53.374;10.722;2022-12-07T10:24:27;548.22;;;459.33;;
62179;SDS011;48172;53.374;10.722;2022-12-07T10:26:54;456.83;;;356.88;;
62179;SDS011;48172;53.374;10.722;2022-12-07T10:32:23;545.17;;;456.20;;
62179;SDS011;48172;53.374;10.722;2022-12-07T10:35:19;513.70;;;413.35;;
62179;SDS011;48172;53.374;10.722;2022-12-07T10:37:54;474.42;;;372.02;;
62179;SDS011;48172;53.374;10.722;2022-12-07T10:46:00;487.95;;;386.05;;
62179;SDS011;48172;53.374;10.722;2022-12-07T10:51:41;518.03;;;415.88;;
62179;SDS011;48172;53.374;10.722;2022-12-07T10:57:05;549.55;;;455.00;;
62179;SDS011;48172;53.374;10.722;2022-12-07T11:13:18;478.88;;;368.45;;
62179;SDS011;48172;53.374;10.722;2022-12-07T11:16:16;460.50;;;351.33;;
62179;SDS011;48172;53.374;10.722;2022-12-07T11:22:06;446.10;;;341.85;;
62179;SDS011;48172;53.374;10.722;2022-12-07T11:24:55;428.95;;;328.40;;
62179;SDS011;48172;53.374;10.722;2022-12-07T11:30:16;434.20;;;332.73;;
62179;SDS011;48172;53.374;10.722;2022-12-07T11:32:57;419.55;;;320.75;;
62179;SDS011;48172;53.374;10.722;2022-12-07T11:38:37;410.55;;;310.85;;
62179;SDS011;48172;53.374;10.722;2022-12-07T11:41:17;395.33;;;301.77;;
62179;SDS011;48172;53.374;10.722;2022-12-07T11:47:22;381.80;;;296.60;;
62179;SDS011;48172;53.374;10.722;2022-12-07T11:54:56;396.90;;;300.02;;
62179;SDS011;48172;53.374;10.722;2022-12-07T11:57:29;434.77;;;334.52;;
62179;SDS011;48172;53.374;10.722;2022-12-07T12:00:04;448.02;;;342.10;;
62179;SDS011;48172;53.374;10.722;2022-12-07T12:02:41;482.42;;;367.50;;
62179;SDS011;48172;53.374;10.722;2022-12-07T12:07:46;474.05;;;358.50;;
62179;SDS011;48172;53.374;10.722;2022-12-07T12:22:37;446.30;;;339.25;;
62179;SDS011;48172;53.374;10.722;2022-12-07T12:25:15;499.45;;;390.77;;
62179;SDS011;48172;53.374;10.722;2022-12-07T12:27:50;489.45;;;381.75;;
62179;SDS011;48172;53.374;10.722;2022-12-07T12:30:39;503.90;;;399.48;;
62179;SDS011;48172;53.374;10.722;2022-12-07T12:33:16;486.10;;;382.60;;
62179;SDS011;48172;53.374;10.722;2022-12-07T12:38:50;508.52;;;413.08;;
62179;SDS011;48172;53.374;10.722;2022-12-07T12:51:50;540.63;;;454.25;;
62179;SDS011;48172;53.374;10.722;2022-12-07T12:54:32;546.88;;;467.65;;
62179;SDS011;48172;53.374;10.722;2022-12-07T12:59:59;543.55;;;455.95;;
62179;SDS011;48172;53.374;10.722;2022-12-07T13:02:36;537.35;;;451.27;;
62179;SDS011;48172;53.374;10.722;2022-12-07T13:21:42;574.50;;;494.80;;
62179;SDS011;48172;53.374;10.722;2022-12-07T13:29:12;581.90;;;494.98;;
62179;SDS011;48172;53.374;10.722;2022-12-07T13:36:57;593.63;;;518.58;;
62179;SDS011;48172;53.374;10.722;2022-12-07T13:39:28;594.13;;;512.72;;
62179;SDS011;48172;53.374;10.722;2022-12-07T13:41:57;604.63;;;528.25;;
62179;SDS011;48172;53.374;10.722;2022-12-07T13:44:34;592.78;;;518.00;;
62179;SDS011;48172;53.374;10.722;2022-12-07T13:47:13;606.67;;;532.78;;
62179;SDS011;48172;53.374;10.722;2022-12-07T13:49:55;596.60;;;520.67;;
62179;SDS011;48172;53.374;10.722;2022-12-07T13:52:25;582.22;;;507.70;;
62179;SDS011;48172;53.374;10.722;2022-12-07T13:57:34;615.28;;;542.13;;
62179;SDS011;48172;53.374;10.722;2022-12-07T14:00:04;585.85;;;515.85;;
62179;SDS011;48172;53.374;10.722;2022-12-07T14:02:58;605.35;;;532.80;;
62179;SDS011;48172;53.374;10.722;2022-12-07T14:05:33;604.55;;;529.92;;
62179;SDS011;48172;53.374;10.722;2022-12-07T14:08:20;568.95;;;496.80;;
62179;SDS011;48172;53.374;10.722;2022-12-07T14:13:39;557.65;;;478.60;;
62179;SDS011;48172;53.374;10.722;2022-12-07T14:18:53;542.22;;;462.98;;
62179;SDS011;48172;53.374;10.722;2022-12-07T14:21:26;536.15;;;457.02;;
62179;SDS011;48172;53.374;10.722;2022-12-07T14:24:09;535.80;;;450.52;;
62179;SDS011;48172;53.374;10.722;2022-12-07T14:26:39;521.95;;;440.58;;
62179;SDS011;48172;53.374;10.722;2022-12-07T14:32:25;507.20;;;418.63;;
62179;SDS011;48172;53.374;10.722;2022-12-07T14:35:01;498.50;;;406.10;;
62179;SDS011;48172;53.374;10.722;2022-12-07T14:37:36;501.45;;;410.17;;
62179;SDS011;48172;53.374;10.722;2022-12-07T14:40:05;496.67;;;398.25;;
62179;SDS011;48172;53.374;10.722;2022-12-07T14:42:33;482.83;;;388.85;;
62179;SDS011;48172;53.374;10.722;2022-12-07T14:45:01;472.90;;;374.77;;
62179;SDS011;48172;53.374;10.722;2022-12-07T14:47:28;467.23;;;371.02;;
62179;SDS011;48172;53.374;10.722;2022-12-07T14:50:15;465.85;;;364.85;;
62179;SDS011;48172;53.374;10.722;2022-12-07T14:52:44;456.88;;;362.23;;
62179;SDS011;48172;53.374;10.722;2022-12-07T14:55:34;455.92;;;357.77;;
62179;SDS011;48172;53.374;10.722;2022-12-07T14:58:01;451.52;;;349.55;;
62179;SDS011;48172;53.374;10.722;2022-12-07T15:00:27;439.90;;;344.92;;
62179;SDS011;48172;53.374;10.722;2022-12-07T15:02:55;440.15;;;344.42;;
62179;SDS011;48172;53.374;10.722;2022-12-07T15:05:22;427.25;;;333.92;;
62179;SDS011;48172;53.374;10.722;2022-12-07T15:07:49;416.27;;;329.98;;
62179;SDS011;48172;53.374;10.722;2022-12-07T15:10:20;412.80;;;322.73;;
62179;SDS011;48172;53.374;10.722;2022-12-07T15:12:56;402.00;;;316.52;;
62179;SDS011;48172;53.374;10.722;2022-12-07T15:15:43;403.25;;;317.55;;
62179;SDS011;48172;53.374;10.722;2022-12-07T15:18:10;391.73;;;309.83;;
62179;SDS011;48172;53.374;10.722;2022-12-07T15:20:37;393.70;;;309.05;;
62179;SDS011;48172;53.374;10.722;2022-12-07T15:23:04;376.38;;;301.42;;
62179;SDS011;48172;53.374;10.722;2022-12-07T15:25:30;381.58;;;302.73;;
62179;SDS011;48172;53.374;10.722;2022-12-07T15:27:57;374.88;;;301.10;;
62179;SDS011;48172;53.374;10.722;2022-12-07T15:30:23;364.98;;;290.50;;
62179;SDS011;48172;53.374;10.722;2022-12-07T15:32:50;363.45;;;290.15;;
62179;SDS011;48172;53.374;10.722;2022-12-07T15:35:21;365.13;;;288.75;;
62179;SDS011;48172;53.374;10.722;2022-12-07T15:37:50;345.27;;;275.98;;
62179;SDS011;48172;53.374;10.722;2022-12-07T15:40:16;349.25;;;273.80;;
62179;SDS011;48172;53.374;10.722;2022-12-07T15:42:43;343.65;;;272.52;;
62179;SDS011;48172;53.374;10.722;2022-12-07T15:45:10;325.73;;;267.50;;
62179;SDS011;48172;53.374;10.722;2022-12-07T15:47:38;322.88;;;259.02;;
62179;SDS011;48172;53.374;10.722;2022-12-07T15:50:26;333.08;;;261.58;;
62179;SDS011;48172;53.374;10.722;2022-12-07T15:52:52;319.55;;;251.88;;
62179;SDS011;48172;53.374;10.722;2022-12-07T15:55:19;320.23;;;252.95;;
62179;SDS011;48172;53.374;10.722;2022-12-07T15:57:46;302.58;;;238.27;;
62179;SDS011;48172;53.374;10.722;2022-12-07T16:00:12;302.42;;;237.18;;
62179;SDS011;48172;53.374;10.722;2022-12-07T16:02:39;294.10;;;230.63;;
62179;SDS011;48172;53.374;10.722;2022-12-07T16:05:06;292.30;;;230.27;;
62179;SDS011;48172;53.374;10.722;2022-12-07T16:07:33;293.50;;;230.60;;
62179;SDS011;48172;53.374;10.722;2022-12-07T16:09:59;289.20;;;225.95;;
62179;SDS011;48172;53.374;10.722;2022-12-07T16:12:26;297.83;;;227.10;;
62179;SDS011;48172;53.374;10.722;2022-12-07T16:14:52;282.17;;;220.15;;
62179;SDS011;48172;53.374;10.722;2022-12-07T16:17:18;277.83;;;217.60;;
62179;SDS011;48172;53.374;10.722;2022-12-07T16:19:45;274.92;;;214.05;;
62179;SDS011;48172;53.374;10.722;2022-12-07T16:22:12;267.35;;;206.88;;
62179;SDS011;48172;53.374;10.722;2022-12-07T16:24:38;265.05;;;204.45;;
62179;SDS011;48172;53.374;10.722;2022-12-07T16:27:05;264.27;;;208.13;;
62179;SDS011;48172;53.374;10.722;2022-12-07T16:29:32;256.23;;;201.90;;
62179;SDS011;48172;53.374;10.722;2022-12-07T16:31:58;258.45;;;199.30;;
62179;SDS011;48172;53.374;10.722;2022-12-07T16:34:25;249.80;;;196.55;;
62179;SDS011;48172;53.374;10.722;2022-12-07T16:36:51;242.73;;;189.30;;
62179;SDS011;48172;53.374;10.722;2022-12-07T16:39:33;240.43;;;184.82;;
62179;SDS011;48172;53.374;10.722;2022-12-07T16:42:00;237.18;;;184.98;;
62179;SDS011;48172;53.374;10.722;2022-12-07T16:44:27;232.98;;;179.82;;
62179;SDS011;48172;53.374;10.722;2022-12-07T16:46:54;231.80;;;177.85;;
62179;SDS011;48172;53.374;10.722;2022-12-07T16:49:21;230.98;;;175.68;;
62179;SDS011;48172;53.374;10.722;2022-12-07T16:51:50;229.05;;;175.13;;
62179;SDS011;48172;53.374;10.722;2022-12-07T16:54:37;221.52;;;168.43;;
62179;SDS011;48172;53.374;10.722;2022-12-07T16:57:03;218.50;;;165.30;;
62179;SDS011;48172;53.374;10.722;2022-12-07T16:59:30;223.90;;;168.98;;
62179;SDS011;48172;53.374;10.722;2022-12-07T17:01:57;208.60;;;159.77;;